sensor_id;sensor_type;location;lat;lon;timestamp;P1;durP1;ratioP1;P2;durP2;ratioP2
17251;SDS011;8742;51.716;8.790;2022-09-24T00:01:06;8.93;;;6.03;;
17251;SDS011;8742;51.716;8.790;2022-09-24T00:03:35;9.40;;;5.73;;
17251;SDS011;8742;51.716;8.790;2022-09-24T00:06:02;8.20;;;5.80;;
17251;SDS011;8742;51.716;8.790;2022-09-24T00:08:29;8.33;;;6.00;;
17251;SDS011;8742;51.716;8.790;2022-09-24T00:10:59;14.67;;;6.90;;
17251;SDS011;8742;51.716;8.790;2022-09-24T00:13:27;7.67;;;5.20;;
17251;SDS011;8742;51.716;8.790;2022-09-24T00:15:54;7.50;;;5.10;;
17251;SDS011;8742;51.716;8.790;2022-09-24T00:18:21;11.60;;;5.63;;
17251;SDS011;8742;51.716;8.790;2022-09-24T00:20:49;10.37;;;5.53;;
17251;SDS011;8742;51.716;8.790;2022-09-24T00:23:16;12.80;;;5.67;;
17251;SDS011;8742;51.716;8.790;2022-09-24T00:25:43;12.47;;;4.80;;
17251;SDS011;8742;51.716;8.790;2022-09-24T00:28:29;8.07;;;5.10;;
17251;SDS011;8742;51.716;8.790;2022-09-24T00:30:57;11.93;;;5.30;;
17251;SDS011;8742;51.716;8.790;2022-09-24T00:33:28;10.20;;;5.00;;
17251;SDS011;8742;51.716;8.790;2022-09-24T00:35:58;7.30;;;5.20;;
17251;SDS011;8742;51.716;8.790;2022-09-24T00:38:26;7.13;;;5.40;;
17251;SDS011;8742;51.716;8.790;2022-09-24T00:40:54;9.13;;;5.57;;
17251;SDS011;8742;51.716;8.790;2022-09-24T00:43:21;10.97;;;4.83;;
17251;SDS011;8742;51.716;8.790;2022-09-24T00:45:49;13.63;;;5.67;;
17251;SDS011;8742;51.716;8.790;2022-09-24T00:48:18;9.50;;;5.10;;
17251;SDS011;8742;51.716;8.790;2022-09-24T00:50:45;7.30;;;5.10;;
17251;SDS011;8742;51.716;8.790;2022-09-24T00:53:15;6.63;;;4.67;;
17251;SDS011;8742;51.716;8.790;2022-09-24T00:55:45;6.33;;;5.00;;
17251;SDS011;8742;51.716;8.790;2022-09-24T00:58:15;8.30;;;5.07;;
17251;SDS011;8742;51.716;8.790;2022-09-24T01:00:43;7.77;;;5.30;;
17251;SDS011;8742;51.716;8.790;2022-09-24T01:03:11;8.50;;;5.20;;
17251;SDS011;8742;51.716;8.790;2022-09-24T01:05:41;9.27;;;5.03;;
17251;SDS011;8742;51.716;8.790;2022-09-24T01:08:09;8.10;;;5.03;;
17251;SDS011;8742;51.716;8.790;2022-09-24T01:10:50;8.63;;;5.03;;
17251;SDS011;8742;51.716;8.790;2022-09-24T01:13:33;5.97;;;4.70;;
17251;SDS011;8742;51.716;8.790;2022-09-24T01:16:10;7.77;;;5.53;;
17251;SDS011;8742;51.716;8.790;2022-09-24T01:18:42;8.23;;;5.47;;
17251;SDS011;8742;51.716;8.790;2022-09-24T01:21:18;12.97;;;5.30;;
17251;SDS011;8742;51.716;8.790;2022-09-24T01:24:02;7.53;;;4.93;;
17251;SDS011;8742;51.716;8.790;2022-09-24T01:27:02;7.87;;;5.00;;
17251;SDS011;8742;51.716;8.790;2022-09-24T01:29:36;5.93;;;5.00;;
17251;SDS011;8742;51.716;8.790;2022-09-24T01:32:13;10.43;;;5.17;;
17251;SDS011;8742;51.716;8.790;2022-09-24T01:34:45;8.57;;;4.90;;
17251;SDS011;8742;51.716;8.790;2022-09-24T01:37:15;5.77;;;4.53;;
17251;SDS011;8742;51.716;8.790;2022-09-24T01:39:46;6.23;;;4.63;;
17251;SDS011;8742;51.716;8.790;2022-09-24T01:42:16;11.23;;;4.97;;
17251;SDS011;8742;51.716;8.790;2022-09-24T01:44:46;9.40;;;5.20;;
17251;SDS011;8742;51.716;8.790;2022-09-24T01:47:15;7.43;;;4.67;;
17251;SDS011;8742;51.716;8.790;2022-09-24T01:49:46;6.93;;;4.47;;
17251;SDS011;8742;51.716;8.790;2022-09-24T01:52:16;7.00;;;4.73;;
17251;SDS011;8742;51.716;8.790;2022-09-24T01:54:47;10.60;;;5.33;;
17251;SDS011;8742;51.716;8.790;2022-09-24T01:57:18;9.20;;;4.97;;
17251;SDS011;8742;51.716;8.790;2022-09-24T01:59:50;10.27;;;5.10;;
17251;SDS011;8742;51.716;8.790;2022-09-24T02:02:20;10.53;;;5.10;;
17251;SDS011;8742;51.716;8.790;2022-09-24T02:04:52;7.00;;;4.80;;
17251;SDS011;8742;51.716;8.790;2022-09-24T02:07:25;7.43;;;5.00;;
17251;SDS011;8742;51.716;8.790;2022-09-24T02:09:55;15.20;;;5.07;;
17251;SDS011;8742;51.716;8.790;2022-09-24T02:12:22;6.97;;;4.83;;
17251;SDS011;8742;51.716;8.790;2022-09-24T02:14:56;7.97;;;4.53;;
17251;SDS011;8742;51.716;8.790;2022-09-24T02:17:28;9.27;;;5.37;;
17251;SDS011;8742;51.716;8.790;2022-09-24T02:20:00;7.33;;;5.27;;
17251;SDS011;8742;51.716;8.790;2022-09-24T02:22:30;8.60;;;5.33;;
17251;SDS011;8742;51.716;8.790;2022-09-24T02:24:58;8.90;;;5.47;;
17251;SDS011;8742;51.716;8.790;2022-09-24T02:27:26;6.63;;;5.17;;
17251;SDS011;8742;51.716;8.790;2022-09-24T02:29:53;10.17;;;5.03;;
17251;SDS011;8742;51.716;8.790;2022-09-24T02:32:23;9.27;;;5.27;;
17251;SDS011;8742;51.716;8.790;2022-09-24T02:34:54;10.77;;;5.13;;
17251;SDS011;8742;51.716;8.790;2022-09-24T02:37:23;13.93;;;5.40;;
17251;SDS011;8742;51.716;8.790;2022-09-24T02:39:50;11.37;;;5.47;;
17251;SDS011;8742;51.716;8.790;2022-09-24T02:42:17;9.83;;;5.30;;
17251;SDS011;8742;51.716;8.790;2022-09-24T02:44:45;8.33;;;5.07;;
17251;SDS011;8742;51.716;8.790;2022-09-24T02:47:14;7.73;;;4.93;;
17251;SDS011;8742;51.716;8.790;2022-09-24T02:49:40;10.77;;;5.70;;
17251;SDS011;8742;51.716;8.790;2022-09-24T02:52:07;10.90;;;5.63;;
17251;SDS011;8742;51.716;8.790;2022-09-24T02:54:34;11.70;;;5.80;;
17251;SDS011;8742;51.716;8.790;2022-09-24T02:57:01;12.50;;;5.80;;
17251;SDS011;8742;51.716;8.790;2022-09-24T02:59:28;10.43;;;6.03;;
17251;SDS011;8742;51.716;8.790;2022-09-24T03:01:55;10.33;;;5.80;;
17251;SDS011;8742;51.716;8.790;2022-09-24T03:04:23;8.97;;;6.07;;
17251;SDS011;8742;51.716;8.790;2022-09-24T03:06:50;8.50;;;5.70;;
17251;SDS011;8742;51.716;8.790;2022-09-24T03:09:17;10.93;;;5.43;;
17251;SDS011;8742;51.716;8.790;2022-09-24T03:11:44;9.27;;;5.73;;
17251;SDS011;8742;51.716;8.790;2022-09-24T03:14:11;13.93;;;5.10;;
17251;SDS011;8742;51.716;8.790;2022-09-24T03:16:38;13.03;;;5.93;;
17251;SDS011;8742;51.716;8.790;2022-09-24T03:19:06;10.50;;;6.13;;
17251;SDS011;8742;51.716;8.790;2022-09-24T03:21:34;10.97;;;6.50;;
17251;SDS011;8742;51.716;8.790;2022-09-24T03:24:01;8.60;;;5.80;;
17251;SDS011;8742;51.716;8.790;2022-09-24T03:26:28;8.90;;;5.73;;
17251;SDS011;8742;51.716;8.790;2022-09-24T03:28:55;10.87;;;5.37;;
17251;SDS011;8742;51.716;8.790;2022-09-24T03:31:22;7.87;;;5.00;;
17251;SDS011;8742;51.716;8.790;2022-09-24T03:33:48;15.53;;;5.77;;
17251;SDS011;8742;51.716;8.790;2022-09-24T03:36:16;17.10;;;6.37;;
17251;SDS011;8742;51.716;8.790;2022-09-24T03:38:46;14.13;;;5.87;;
17251;SDS011;8742;51.716;8.790;2022-09-24T03:41:14;8.10;;;6.20;;
17251;SDS011;8742;51.716;8.790;2022-09-24T03:43:42;7.23;;;5.40;;
17251;SDS011;8742;51.716;8.790;2022-09-24T03:46:09;12.07;;;5.70;;
17251;SDS011;8742;51.716;8.790;2022-09-24T03:48:38;8.23;;;5.67;;
17251;SDS011;8742;51.716;8.790;2022-09-24T03:51:07;10.50;;;5.47;;
17251;SDS011;8742;51.716;8.790;2022-09-24T03:53:35;12.00;;;5.33;;
17251;SDS011;8742;51.716;8.790;2022-09-24T03:56:04;9.20;;;5.50;;
17251;SDS011;8742;51.716;8.790;2022-09-24T03:58:33;15.10;;;6.20;;
17251;SDS011;8742;51.716;8.790;2022-09-24T04:01:02;9.67;;;6.00;;
17251;SDS011;8742;51.716;8.790;2022-09-24T04:03:30;7.77;;;5.60;;
17251;SDS011;8742;51.716;8.790;2022-09-24T04:05:56;12.90;;;6.47;;
17251;SDS011;8742;51.716;8.790;2022-09-24T04:08:23;10.60;;;6.10;;
17251;SDS011;8742;51.716;8.790;2022-09-24T04:10:51;8.63;;;5.73;;
17251;SDS011;8742;51.716;8.790;2022-09-24T04:13:20;9.87;;;5.43;;
17251;SDS011;8742;51.716;8.790;2022-09-24T04:15:47;9.20;;;5.77;;
17251;SDS011;8742;51.716;8.790;2022-09-24T04:18:15;13.70;;;5.87;;
17251;SDS011;8742;51.716;8.790;2022-09-24T04:20:42;10.73;;;6.07;;
17251;SDS011;8742;51.716;8.790;2022-09-24T04:23:09;7.47;;;5.40;;
17251;SDS011;8742;51.716;8.790;2022-09-24T04:25:36;12.37;;;6.27;;
17251;SDS011;8742;51.716;8.790;2022-09-24T04:28:05;20.47;;;5.67;;
17251;SDS011;8742;51.716;8.790;2022-09-24T04:30:34;13.23;;;6.00;;
17251;SDS011;8742;51.716;8.790;2022-09-24T04:33:02;10.27;;;5.53;;
17251;SDS011;8742;51.716;8.790;2022-09-24T04:35:30;11.27;;;5.97;;
17251;SDS011;8742;51.716;8.790;2022-09-24T04:38:00;12.70;;;5.87;;
17251;SDS011;8742;51.716;8.790;2022-09-24T04:40:27;14.20;;;6.50;;
17251;SDS011;8742;51.716;8.790;2022-09-24T04:42:55;7.37;;;5.43;;
17251;SDS011;8742;51.716;8.790;2022-09-24T04:45:22;9.30;;;6.50;;
17251;SDS011;8742;51.716;8.790;2022-09-24T04:47:50;9.50;;;5.90;;
17251;SDS011;8742;51.716;8.790;2022-09-24T04:50:21;8.70;;;5.90;;
17251;SDS011;8742;51.716;8.790;2022-09-24T04:52:49;12.97;;;5.70;;
17251;SDS011;8742;51.716;8.790;2022-09-24T04:55:16;11.30;;;6.13;;
17251;SDS011;8742;51.716;8.790;2022-09-24T04:57:44;10.47;;;6.03;;
17251;SDS011;8742;51.716;8.790;2022-09-24T05:00:12;9.77;;;5.63;;
17251;SDS011;8742;51.716;8.790;2022-09-24T05:02:41;10.37;;;5.87;;
17251;SDS011;8742;51.716;8.790;2022-09-24T05:05:10;10.60;;;5.57;;
17251;SDS011;8742;51.716;8.790;2022-09-24T05:07:37;10.03;;;6.07;;
17251;SDS011;8742;51.716;8.790;2022-09-24T05:10:05;8.43;;;5.77;;
17251;SDS011;8742;51.716;8.790;2022-09-24T05:12:32;14.27;;;6.97;;
17251;SDS011;8742;51.716;8.790;2022-09-24T05:15:00;8.00;;;5.80;;
17251;SDS011;8742;51.716;8.790;2022-09-24T05:17:28;10.63;;;6.37;;
17251;SDS011;8742;51.716;8.790;2022-09-24T05:19:55;16.10;;;6.37;;
17251;SDS011;8742;51.716;8.790;2022-09-24T05:22:25;16.63;;;6.00;;
17251;SDS011;8742;51.716;8.790;2022-09-24T05:24:52;10.20;;;5.80;;
17251;SDS011;8742;51.716;8.790;2022-09-24T05:27:19;12.33;;;6.37;;
17251;SDS011;8742;51.716;8.790;2022-09-24T05:29:45;8.10;;;6.17;;
17251;SDS011;8742;51.716;8.790;2022-09-24T05:32:13;10.13;;;6.00;;
17251;SDS011;8742;51.716;8.790;2022-09-24T05:34:41;11.03;;;6.53;;
17251;SDS011;8742;51.716;8.790;2022-09-24T05:37:09;12.00;;;6.80;;
17251;SDS011;8742;51.716;8.790;2022-09-24T05:39:38;15.60;;;7.13;;
17251;SDS011;8742;51.716;8.790;2022-09-24T05:42:05;8.73;;;6.40;;
17251;SDS011;8742;51.716;8.790;2022-09-24T05:44:32;9.53;;;6.87;;
17251;SDS011;8742;51.716;8.790;2022-09-24T05:47:00;12.50;;;6.57;;
17251;SDS011;8742;51.716;8.790;2022-09-24T05:49:27;11.70;;;6.73;;
17251;SDS011;8742;51.716;8.790;2022-09-24T05:51:53;15.40;;;6.97;;
17251;SDS011;8742;51.716;8.790;2022-09-24T05:54:21;12.60;;;7.20;;
17251;SDS011;8742;51.716;8.790;2022-09-24T05:56:49;9.23;;;6.90;;
17251;SDS011;8742;51.716;8.790;2022-09-24T05:59:15;10.77;;;7.03;;
17251;SDS011;8742;51.716;8.790;2022-09-24T06:01:42;12.17;;;6.30;;
17251;SDS011;8742;51.716;8.790;2022-09-24T06:04:09;12.00;;;7.13;;
17251;SDS011;8742;51.716;8.790;2022-09-24T06:06:36;15.33;;;7.63;;
17251;SDS011;8742;51.716;8.790;2022-09-24T06:09:03;10.20;;;6.80;;
17251;SDS011;8742;51.716;8.790;2022-09-24T06:11:32;15.30;;;7.53;;
17251;SDS011;8742;51.716;8.790;2022-09-24T06:14:01;13.73;;;7.63;;
17251;SDS011;8742;51.716;8.790;2022-09-24T06:16:30;11.37;;;7.73;;
17251;SDS011;8742;51.716;8.790;2022-09-24T06:18:58;11.87;;;7.63;;
17251;SDS011;8742;51.716;8.790;2022-09-24T06:21:24;11.53;;;8.13;;
17251;SDS011;8742;51.716;8.790;2022-09-24T06:23:51;12.77;;;8.87;;
17251;SDS011;8742;51.716;8.790;2022-09-24T06:26:18;17.13;;;8.83;;
17251;SDS011;8742;51.716;8.790;2022-09-24T06:28:45;13.30;;;8.50;;
17251;SDS011;8742;51.716;8.790;2022-09-24T06:31:13;12.17;;;8.87;;
17251;SDS011;8742;51.716;8.790;2022-09-24T06:33:40;12.80;;;8.63;;
17251;SDS011;8742;51.716;8.790;2022-09-24T06:36:07;14.33;;;9.03;;
17251;SDS011;8742;51.716;8.790;2022-09-24T06:38:34;20.30;;;9.20;;
17251;SDS011;8742;51.716;8.790;2022-09-24T06:41:03;17.53;;;8.60;;
17251;SDS011;8742;51.716;8.790;2022-09-24T06:43:31;20.23;;;8.77;;
17251;SDS011;8742;51.716;8.790;2022-09-24T06:45:59;13.80;;;8.10;;
17251;SDS011;8742;51.716;8.790;2022-09-24T06:48:29;17.27;;;8.63;;
17251;SDS011;8742;51.716;8.790;2022-09-24T06:50:56;12.90;;;7.20;;
17251;SDS011;8742;51.716;8.790;2022-09-24T06:53:23;15.73;;;8.20;;
17251;SDS011;8742;51.716;8.790;2022-09-24T06:55:50;12.73;;;7.87;;
17251;SDS011;8742;51.716;8.790;2022-09-24T06:58:18;21.87;;;8.73;;
17251;SDS011;8742;51.716;8.790;2022-09-24T07:00:49;15.00;;;8.17;;
17251;SDS011;8742;51.716;8.790;2022-09-24T07:03:17;13.47;;;7.73;;
17251;SDS011;8742;51.716;8.790;2022-09-24T07:05:45;15.40;;;7.83;;
17251;SDS011;8742;51.716;8.790;2022-09-24T07:08:12;17.00;;;8.80;;
17251;SDS011;8742;51.716;8.790;2022-09-24T07:10:42;19.43;;;9.33;;
17251;SDS011;8742;51.716;8.790;2022-09-24T07:13:10;14.93;;;9.70;;
17251;SDS011;8742;51.716;8.790;2022-09-24T07:15:38;12.63;;;9.33;;
17251;SDS011;8742;51.716;8.790;2022-09-24T07:18:05;18.03;;;9.10;;
17251;SDS011;8742;51.716;8.790;2022-09-24T07:20:32;17.63;;;10.23;;
17251;SDS011;8742;51.716;8.790;2022-09-24T07:23:02;24.50;;;10.37;;
17251;SDS011;8742;51.716;8.790;2022-09-24T07:25:29;15.87;;;9.67;;
17251;SDS011;8742;51.716;8.790;2022-09-24T07:27:59;14.23;;;9.53;;
17251;SDS011;8742;51.716;8.790;2022-09-24T07:30:27;14.77;;;10.10;;
17251;SDS011;8742;51.716;8.790;2022-09-24T07:32:54;16.50;;;10.57;;
17251;SDS011;8742;51.716;8.790;2022-09-24T07:35:21;26.80;;;12.93;;
17251;SDS011;8742;51.716;8.790;2022-09-24T07:37:54;24.80;;;14.60;;
17251;SDS011;8742;51.716;8.790;2022-09-24T07:40:24;21.80;;;13.50;;
17251;SDS011;8742;51.716;8.790;2022-09-24T07:42:51;18.90;;;12.77;;
17251;SDS011;8742;51.716;8.790;2022-09-24T07:45:19;21.47;;;13.50;;
17251;SDS011;8742;51.716;8.790;2022-09-24T07:47:46;26.47;;;14.53;;
17251;SDS011;8742;51.716;8.790;2022-09-24T07:50:13;21.60;;;13.50;;
17251;SDS011;8742;51.716;8.790;2022-09-24T07:52:40;24.80;;;14.37;;
17251;SDS011;8742;51.716;8.790;2022-09-24T07:55:07;25.33;;;14.43;;
17251;SDS011;8742;51.716;8.790;2022-09-24T07:57:36;19.37;;;14.97;;
17251;SDS011;8742;51.716;8.790;2022-09-24T08:00:03;22.43;;;14.47;;
17251;SDS011;8742;51.716;8.790;2022-09-24T08:02:31;23.83;;;14.43;;
17251;SDS011;8742;51.716;8.790;2022-09-24T08:04:58;30.90;;;15.33;;
17251;SDS011;8742;51.716;8.790;2022-09-24T08:07:26;22.53;;;15.60;;
17251;SDS011;8742;51.716;8.790;2022-09-24T08:09:53;21.57;;;14.33;;
17251;SDS011;8742;51.716;8.790;2022-09-24T08:12:20;23.23;;;16.13;;
17251;SDS011;8742;51.716;8.790;2022-09-24T08:14:51;21.33;;;14.73;;
17251;SDS011;8742;51.716;8.790;2022-09-24T08:17:18;23.97;;;15.37;;
17251;SDS011;8742;51.716;8.790;2022-09-24T08:19:44;25.03;;;14.97;;
17251;SDS011;8742;51.716;8.790;2022-09-24T08:22:12;22.23;;;13.87;;
17251;SDS011;8742;51.716;8.790;2022-09-24T08:24:39;20.00;;;13.73;;
17251;SDS011;8742;51.716;8.790;2022-09-24T08:27:06;24.93;;;15.47;;
17251;SDS011;8742;51.716;8.790;2022-09-24T08:29:33;22.73;;;15.13;;
17251;SDS011;8742;51.716;8.790;2022-09-24T08:32:01;25.67;;;16.67;;
17251;SDS011;8742;51.716;8.790;2022-09-24T08:34:28;23.23;;;15.53;;
17251;SDS011;8742;51.716;8.790;2022-09-24T08:36:55;25.93;;;14.60;;
17251;SDS011;8742;51.716;8.790;2022-09-24T08:39:22;24.43;;;16.57;;
17251;SDS011;8742;51.716;8.790;2022-09-24T08:41:50;28.00;;;18.33;;
17251;SDS011;8742;51.716;8.790;2022-09-24T08:44:22;31.53;;;17.53;;
17251;SDS011;8742;51.716;8.790;2022-09-24T08:47:14;25.83;;;16.10;;
17251;SDS011;8742;51.716;8.790;2022-09-24T08:49:51;27.10;;;17.43;;
17251;SDS011;8742;51.716;8.790;2022-09-24T08:52:27;30.20;;;19.10;;
17251;SDS011;8742;51.716;8.790;2022-09-24T08:55:00;31.77;;;20.17;;
17251;SDS011;8742;51.716;8.790;2022-09-24T08:57:33;40.37;;;21.40;;
17251;SDS011;8742;51.716;8.790;2022-09-24T09:00:05;32.27;;;21.37;;
17251;SDS011;8742;51.716;8.790;2022-09-24T09:02:40;35.07;;;21.00;;
17251;SDS011;8742;51.716;8.790;2022-09-24T09:05:14;34.77;;;20.93;;
17251;SDS011;8742;51.716;8.790;2022-09-24T09:07:50;38.23;;;21.77;;
17251;SDS011;8742;51.716;8.790;2022-09-24T09:10:24;41.37;;;21.77;;
17251;SDS011;8742;51.716;8.790;2022-09-24T09:12:57;35.90;;;21.33;;
17251;SDS011;8742;51.716;8.790;2022-09-24T09:15:30;34.33;;;23.13;;
17251;SDS011;8742;51.716;8.790;2022-09-24T09:18:03;32.07;;;21.93;;
17251;SDS011;8742;51.716;8.790;2022-09-24T09:20:37;40.00;;;25.47;;
17251;SDS011;8742;51.716;8.790;2022-09-24T09:23:10;42.83;;;25.13;;
17251;SDS011;8742;51.716;8.790;2022-09-24T09:25:41;39.60;;;24.30;;
17251;SDS011;8742;51.716;8.790;2022-09-24T09:28:16;38.97;;;25.83;;
17251;SDS011;8742;51.716;8.790;2022-09-24T09:30:47;47.23;;;27.17;;
17251;SDS011;8742;51.716;8.790;2022-09-24T09:33:19;45.03;;;26.80;;
17251;SDS011;8742;51.716;8.790;2022-09-24T09:35:54;43.93;;;25.97;;
17251;SDS011;8742;51.716;8.790;2022-09-24T09:38:28;46.40;;;23.97;;
17251;SDS011;8742;51.716;8.790;2022-09-24T09:41:05;39.00;;;22.43;;
17251;SDS011;8742;51.716;8.790;2022-09-24T09:43:41;36.87;;;22.40;;
17251;SDS011;8742;51.716;8.790;2022-09-24T09:46:11;33.40;;;20.77;;
17251;SDS011;8742;51.716;8.790;2022-09-24T09:48:45;30.27;;;17.77;;
17251;SDS011;8742;51.716;8.790;2022-09-24T09:51:17;29.53;;;19.37;;
17251;SDS011;8742;51.716;8.790;2022-09-24T09:53:54;27.97;;;19.03;;
17251;SDS011;8742;51.716;8.790;2022-09-24T09:56:22;28.50;;;19.47;;
17251;SDS011;8742;51.716;8.790;2022-09-24T09:58:59;24.23;;;17.93;;
17251;SDS011;8742;51.716;8.790;2022-09-24T10:01:29;24.73;;;16.83;;
17251;SDS011;8742;51.716;8.790;2022-09-24T10:04:00;34.20;;;19.37;;
17251;SDS011;8742;51.716;8.790;2022-09-24T10:06:29;37.90;;;20.77;;
17251;SDS011;8742;51.716;8.790;2022-09-24T10:09:06;33.97;;;19.90;;
17251;SDS011;8742;51.716;8.790;2022-09-24T10:11:37;36.37;;;20.00;;
17251;SDS011;8742;51.716;8.790;2022-09-24T10:14:05;26.80;;;18.00;;
17251;SDS011;8742;51.716;8.790;2022-09-24T10:16:37;21.90;;;15.80;;
17251;SDS011;8742;51.716;8.790;2022-09-24T10:19:13;21.43;;;14.70;;
17251;SDS011;8742;51.716;8.790;2022-09-24T10:21:44;25.47;;;15.43;;
17251;SDS011;8742;51.716;8.790;2022-09-24T10:24:12;33.13;;;16.30;;
17251;SDS011;8742;51.716;8.790;2022-09-24T10:26:42;23.00;;;15.30;;
17251;SDS011;8742;51.716;8.790;2022-09-24T10:29:11;20.90;;;13.23;;
17251;SDS011;8742;51.716;8.790;2022-09-24T10:31:58;19.60;;;9.63;;
17251;SDS011;8742;51.716;8.790;2022-09-24T10:34:27;14.23;;;10.17;;
17251;SDS011;8742;51.716;8.790;2022-09-24T10:36:57;14.00;;;9.70;;
17251;SDS011;8742;51.716;8.790;2022-09-24T10:39:26;15.57;;;8.93;;
17251;SDS011;8742;51.716;8.790;2022-09-24T10:41:54;16.00;;;10.23;;
17251;SDS011;8742;51.716;8.790;2022-09-24T10:44:23;15.60;;;10.70;;
17251;SDS011;8742;51.716;8.790;2022-09-24T10:47:00;16.97;;;11.67;;
17251;SDS011;8742;51.716;8.790;2022-09-24T10:49:49;19.00;;;12.73;;
17251;SDS011;8742;51.716;8.790;2022-09-24T10:52:30;18.53;;;11.57;;
17251;SDS011;8742;51.716;8.790;2022-09-24T10:55:12;16.40;;;9.97;;
17251;SDS011;8742;51.716;8.790;2022-09-24T10:57:46;13.83;;;9.60;;
17251;SDS011;8742;51.716;8.790;2022-09-24T11:00:22;14.57;;;9.67;;
17251;SDS011;8742;51.716;8.790;2022-09-24T11:03:04;13.77;;;10.90;;
17251;SDS011;8742;51.716;8.790;2022-09-24T11:05:51;17.60;;;11.07;;
17251;SDS011;8742;51.716;8.790;2022-09-24T11:08:22;19.53;;;13.17;;
17251;SDS011;8742;51.716;8.790;2022-09-24T11:11:10;23.13;;;13.83;;
17251;SDS011;8742;51.716;8.790;2022-09-24T11:13:47;17.63;;;12.27;;
17251;SDS011;8742;51.716;8.790;2022-09-24T11:16:31;18.70;;;13.60;;
17251;SDS011;8742;51.716;8.790;2022-09-24T11:19:17;18.93;;;12.50;;
17251;SDS011;8742;51.716;8.790;2022-09-24T11:21:59;18.13;;;13.90;;
17251;SDS011;8742;51.716;8.790;2022-09-24T11:24:37;24.77;;;14.53;;
17251;SDS011;8742;51.716;8.790;2022-09-24T11:30:21;24.10;;;13.83;;
17251;SDS011;8742;51.716;8.790;2022-09-24T11:32:55;22.27;;;13.83;;
17251;SDS011;8742;51.716;8.790;2022-09-24T11:35:45;21.50;;;14.53;;
17251;SDS011;8742;51.716;8.790;2022-09-24T11:38:23;27.80;;;14.60;;
17251;SDS011;8742;51.716;8.790;2022-09-24T11:41:04;23.73;;;13.80;;
17251;SDS011;8742;51.716;8.790;2022-09-24T11:43:44;20.60;;;13.97;;
17251;SDS011;8742;51.716;8.790;2022-09-24T11:46:28;20.80;;;14.73;;
17251;SDS011;8742;51.716;8.790;2022-09-24T11:52:01;20.83;;;13.47;;
17251;SDS011;8742;51.716;8.790;2022-09-24T11:54:35;17.97;;;13.20;;
17251;SDS011;8742;51.716;8.790;2022-09-24T11:57:08;19.33;;;12.87;;
17251;SDS011;8742;51.716;8.790;2022-09-24T11:59:42;19.23;;;14.23;;
17251;SDS011;8742;51.716;8.790;2022-09-24T12:02:15;21.87;;;14.57;;
17251;SDS011;8742;51.716;8.790;2022-09-24T12:04:48;22.97;;;15.43;;
17251;SDS011;8742;51.716;8.790;2022-09-24T12:07:21;25.93;;;15.87;;
17251;SDS011;8742;51.716;8.790;2022-09-24T12:09:54;29.23;;;17.07;;
17251;SDS011;8742;51.716;8.790;2022-09-24T12:12:26;24.10;;;15.63;;
17251;SDS011;8742;51.716;8.790;2022-09-24T12:14:58;21.80;;;16.77;;
17251;SDS011;8742;51.716;8.790;2022-09-24T12:17:31;25.60;;;16.77;;
17251;SDS011;8742;51.716;8.790;2022-09-24T12:20:03;21.40;;;14.60;;
17251;SDS011;8742;51.716;8.790;2022-09-24T12:22:34;35.27;;;21.13;;
17251;SDS011;8742;51.716;8.790;2022-09-24T12:25:09;30.40;;;19.17;;
17251;SDS011;8742;51.716;8.790;2022-09-24T12:27:37;20.53;;;14.30;;
17251;SDS011;8742;51.716;8.790;2022-09-24T12:30:08;22.60;;;14.03;;
17251;SDS011;8742;51.716;8.790;2022-09-24T12:33:02;18.37;;;13.77;;
17251;SDS011;8742;51.716;8.790;2022-09-24T12:35:42;22.50;;;14.07;;
17251;SDS011;8742;51.716;8.790;2022-09-24T12:38:21;18.90;;;12.80;;
17251;SDS011;8742;51.716;8.790;2022-09-24T12:40:57;19.63;;;13.57;;
17251;SDS011;8742;51.716;8.790;2022-09-24T12:43:36;22.03;;;12.57;;
17251;SDS011;8742;51.716;8.790;2022-09-24T12:46:11;19.03;;;13.17;;
17251;SDS011;8742;51.716;8.790;2022-09-24T12:48:42;22.47;;;12.27;;
17251;SDS011;8742;51.716;8.790;2022-09-24T12:51:11;17.40;;;13.60;;
17251;SDS011;8742;51.716;8.790;2022-09-24T12:53:39;22.50;;;13.30;;
17251;SDS011;8742;51.716;8.790;2022-09-24T12:56:09;22.00;;;13.97;;
17251;SDS011;8742;51.716;8.790;2022-09-24T12:58:37;20.20;;;13.83;;
17251;SDS011;8742;51.716;8.790;2022-09-24T13:01:11;22.37;;;13.63;;
17251;SDS011;8742;51.716;8.790;2022-09-24T13:03:40;23.10;;;15.53;;
17251;SDS011;8742;51.716;8.790;2022-09-24T13:06:22;25.30;;;14.57;;
17251;SDS011;8742;51.716;8.790;2022-09-24T13:08:56;27.43;;;14.23;;
17251;SDS011;8742;51.716;8.790;2022-09-24T13:11:26;23.10;;;14.20;;
17251;SDS011;8742;51.716;8.790;2022-09-24T13:14:06;25.67;;;14.83;;
17251;SDS011;8742;51.716;8.790;2022-09-24T13:16:46;18.57;;;13.33;;
17251;SDS011;8742;51.716;8.790;2022-09-24T13:19:22;19.17;;;13.63;;
17251;SDS011;8742;51.716;8.790;2022-09-24T13:21:55;23.33;;;14.37;;
17251;SDS011;8742;51.716;8.790;2022-09-24T13:24:25;17.50;;;12.70;;
17251;SDS011;8742;51.716;8.790;2022-09-24T13:26:54;26.13;;;13.07;;
17251;SDS011;8742;51.716;8.790;2022-09-24T13:29:36;17.50;;;12.80;;
17251;SDS011;8742;51.716;8.790;2022-09-24T13:32:04;21.10;;;13.00;;
17251;SDS011;8742;51.716;8.790;2022-09-24T13:34:31;22.27;;;13.20;;
17251;SDS011;8742;51.716;8.790;2022-09-24T13:37:00;19.10;;;12.90;;
17251;SDS011;8742;51.716;8.790;2022-09-24T13:39:35;15.93;;;11.63;;
17251;SDS011;8742;51.716;8.790;2022-09-24T13:42:13;15.67;;;12.60;;
17251;SDS011;8742;51.716;8.790;2022-09-24T13:44:45;24.07;;;14.37;;
17251;SDS011;8742;51.716;8.790;2022-09-24T13:47:14;19.30;;;14.90;;
17251;SDS011;8742;51.716;8.790;2022-09-24T13:49:45;21.50;;;14.03;;
17251;SDS011;8742;51.716;8.790;2022-09-24T13:52:16;20.97;;;13.23;;
17251;SDS011;8742;51.716;8.790;2022-09-24T13:54:53;20.97;;;12.67;;
17251;SDS011;8742;51.716;8.790;2022-09-24T13:57:25;17.00;;;11.27;;
17251;SDS011;8742;51.716;8.790;2022-09-24T14:02:50;11.70;;;8.70;;
17251;SDS011;8742;51.716;8.790;2022-09-24T14:05:20;13.07;;;9.13;;
17251;SDS011;8742;51.716;8.790;2022-09-24T14:07:52;16.47;;;8.47;;
17251;SDS011;8742;51.716;8.790;2022-09-24T14:10:23;13.10;;;9.80;;
17251;SDS011;8742;51.716;8.790;2022-09-24T14:13:04;14.77;;;9.63;;
17251;SDS011;8742;51.716;8.790;2022-09-24T14:15:48;13.40;;;9.40;;
17251;SDS011;8742;51.716;8.790;2022-09-24T14:18:18;11.77;;;9.13;;
17251;SDS011;8742;51.716;8.790;2022-09-24T14:20:47;14.53;;;9.73;;
17251;SDS011;8742;51.716;8.790;2022-09-24T14:23:20;15.23;;;9.50;;
17251;SDS011;8742;51.716;8.790;2022-09-24T14:25:51;13.03;;;9.33;;
17251;SDS011;8742;51.716;8.790;2022-09-24T14:28:20;13.20;;;9.60;;
17251;SDS011;8742;51.716;8.790;2022-09-24T14:30:48;11.47;;;8.73;;
17251;SDS011;8742;51.716;8.790;2022-09-24T14:33:18;14.03;;;9.73;;
17251;SDS011;8742;51.716;8.790;2022-09-24T14:35:49;14.73;;;10.40;;
17251;SDS011;8742;51.716;8.790;2022-09-24T14:38:18;12.10;;;9.63;;
17251;SDS011;8742;51.716;8.790;2022-09-24T14:40:48;12.73;;;8.77;;
17251;SDS011;8742;51.716;8.790;2022-09-24T14:43:21;15.87;;;10.40;;
17251;SDS011;8742;51.716;8.790;2022-09-24T14:45:58;12.57;;;10.03;;
17251;SDS011;8742;51.716;8.790;2022-09-24T14:48:28;18.97;;;10.30;;
17251;SDS011;8742;51.716;8.790;2022-09-24T14:50:56;12.80;;;9.90;;
17251;SDS011;8742;51.716;8.790;2022-09-24T14:53:23;13.37;;;10.23;;
17251;SDS011;8742;51.716;8.790;2022-09-24T14:55:53;16.77;;;10.30;;
17251;SDS011;8742;51.716;8.790;2022-09-24T14:58:23;16.07;;;10.67;;
17251;SDS011;8742;51.716;8.790;2022-09-24T15:00:59;18.07;;;11.00;;
17251;SDS011;8742;51.716;8.790;2022-09-24T15:03:31;13.63;;;11.50;;
17251;SDS011;8742;51.716;8.790;2022-09-24T15:06:04;14.23;;;11.13;;
17251;SDS011;8742;51.716;8.790;2022-09-24T15:08:38;17.30;;;11.60;;
17251;SDS011;8742;51.716;8.790;2022-09-24T15:11:13;14.60;;;11.20;;
17251;SDS011;8742;51.716;8.790;2022-09-24T15:13:42;16.47;;;11.23;;
17251;SDS011;8742;51.716;8.790;2022-09-24T15:16:16;16.00;;;11.83;;